To NAV CANADA Home Page Login to a new session Search on AWWS site Feedback and Comments Disclaimer Vers la page française équivalente Tips FAQ What's new on the site To the Forecasts and Observations / NOTAM section To "File a Flight Plan" website Publications and other links Update of the User's profile FIC Telephone Numbers My Weather Data Folder Route Weather Data Regional Weather Data Local Weather Data To the Forecasts and Observations / NOTAM section
Request Generated 06/26/2017 at 22:33:24 UTC . Weather information available at that time is displayed.

METAR/TAF

CALGARY/SPRINGBANK/AB    (show WxCam)

METAR CYBW 262200Z AUTO VRB04KT 9SM BKN120 BKN140 28/06 A2974 RMK
SLP055 DENSITY ALT 6400FT=
METAR CYBW 262100Z AUTO 17009KT 9SM FEW230 27/09 A2976 RMK SLP061
DENSITY ALT 6300FT=
METAR CYBW 262000Z AUTO 16009KT 9SM FEW230 26/14 A2978 RMK SLP069
DENSITY ALT 6100FT=

TAF CYBW 261748Z 2618/2704 VRB03KT P6SM FEW060 BKN190
BECMG 2619/2621 21012KT
FM262100 21012KT P6SM SCT090 SCT220 TEMPO 2621/2702 VRB15G25KT
P6SM -SHRA BKN090 BKN220 PROB30 2621/2702 VRB35G45KT 6SM TSRA
BKN080CB
FM270200 28012G22KT P6SM SCT090 TEMPO 2702/2704 P6SM VCSH BKN090
RMK FCST BASED ON AUTO OBS. NXT FCST BY 270000Z=
Your time UTC time
Weather data provided by Environment Canada and NAV CANADA